Time;durP1;ratioP1;P1;durP2;ratioP2;P2;SDS_P1;SDS_P2;PMS_P1;PMS_P2;Temp;Humidity;BMP_temperature;BMP_pressure;BME280_temperature;BME280_humidity;BME280_pressure;Samples;Min_cycle;Max_cycle;Signal;HPM_P1;HPM_P2
2023/11/08 00:01:32;;;;;;;1.95;1.85;;;8.40;99.90;;;;;;5051247;28;20202;-63
2023/11/08 00:03:59;;;;;;;2.15;1.80;;;8.40;99.90;;;;;;5051237;28;20210;-63
2023/11/08 00:06:27;;;;;;;1.77;1.65;;;8.40;99.90;;;;;;5050993;28;20226;-63
2023/11/08 00:08:53;;;;;;;3.72;1.80;;;8.40;99.90;;;;;;5050913;28;20234;-63
2023/11/08 00:11:23;;;;;;;1.70;1.60;;;8.40;99.90;;;;;;5051336;28;20592;-63
2023/11/08 00:13:50;;;;;;;2.13;2.00;;;8.40;99.90;;;;;;5051301;28;20233;-63
2023/11/08 00:16:17;;;;;;;1.90;1.70;;;8.50;99.90;;;;;;5050652;28;20241;-63
2023/11/08 00:18:45;;;;;;;4.10;2.40;;;8.50;99.90;;;;;;5051026;28;20199;-63
2023/11/08 00:21:12;;;;;;;2.47;1.60;;;8.50;99.90;;;;;;5051305;28;20217;-63
2023/11/08 00:23:39;;;;;;;3.65;1.60;;;8.50;99.90;;;;;;5051025;28;20209;-63
2023/11/08 00:26:07;;;;;;;1.85;1.73;;;8.50;99.90;;;;;;5050848;28;20234;-63
2023/11/08 00:28:35;;;;;;;7.00;2.03;;;8.50;99.90;;;;;;5051018;28;20316;-63
2023/11/08 00:31:02;;;;;;;2.03;1.30;;;8.40;99.90;;;;;;5051363;28;20577;-63
2023/11/08 00:33:29;;;;;;;2.33;1.70;;;8.40;99.90;;;;;;5050997;28;20680;-63
2023/11/08 00:35:56;;;;;;;1.38;1.20;;;8.40;99.90;;;;;;5050547;28;20228;-63
2023/11/08 00:38:22;;;;;;;2.97;2.78;;;8.40;99.90;;;;;;5051130;28;20642;-63
2023/11/08 00:40:49;;;;;;;3.97;1.80;;;8.40;99.90;;;;;;5050653;28;20245;-63
2023/11/08 00:43:16;;;;;;;4.30;1.80;;;8.30;99.90;;;;;;5051045;28;20293;-63
2023/11/08 00:45:44;;;;;;;4.28;2.95;;;8.40;99.90;;;;;;5050664;28;20269;-63
2023/11/08 00:48:11;;;;;;;3.05;1.88;;;8.40;99.90;;;;;;5050745;28;20810;-63
2023/11/08 00:50:38;;;;;;;2.17;1.97;;;8.40;99.90;;;;;;5053821;28;20294;-63
2023/11/08 00:53:06;;;;;;;6.18;1.88;;;8.30;99.90;;;;;;5054972;28;20936;-64
2023/11/08 00:55:33;;;;;;;6.90;4.35;;;8.40;99.90;;;;;;5054454;28;20230;-63
2023/11/08 00:58:00;;;;;;;3.80;2.28;;;8.30;99.90;;;;;;5054675;28;20300;-63
2023/11/08 01:00:27;;;;;;;1.70;1.60;;;8.40;99.90;;;;;;5054568;28;20241;-63
2023/11/08 01:02:55;;;;;;;4.45;2.10;;;8.40;99.90;;;;;;5054495;28;20241;-63
2023/11/08 01:05:22;;;;;;;7.05;2.50;;;8.40;99.90;;;;;;5054088;28;20628;-63
2023/11/08 01:07:49;;;;;;;4.13;1.88;;;8.40;99.90;;;;;;5054551;28;20206;-63
2023/11/08 01:10:16;;;;;;;5.25;1.75;;;8.40;99.90;;;;;;5054478;28;20830;-63
2023/11/08 01:12:44;;;;;;;4.60;1.70;;;8.40;99.90;;;;;;5054268;28;20246;-63
2023/11/08 01:15:11;;;;;;;2.00;1.35;;;8.40;99.90;;;;;;5053932;28;20321;-63
2023/11/08 01:17:38;;;;;;;2.28;1.52;;;8.40;99.90;;;;;;5054018;28;20718;-64
2023/11/08 01:20:07;;;;;;;5.10;2.13;;;8.40;99.90;;;;;;5054059;28;20293;-63
2023/11/08 01:22:34;;;;;;;3.67;1.58;;;8.40;99.90;;;;;;5053398;28;20207;-63
2023/11/08 01:25:02;;;;;;;3.22;1.75;;;8.40;99.90;;;;;;5053746;28;20238;-63
2023/11/08 01:27:29;;;;;;;1.30;1.20;;;8.40;99.90;;;;;;5053917;28;20624;-63
2023/11/08 01:29:56;;;;;;;2.00;1.60;;;8.40;99.90;;;;;;5053928;28;20864;-63
2023/11/08 01:32:23;;;;;;;2.70;2.05;;;8.40;99.90;;;;;;5053947;28;20210;-63
2023/11/08 01:34:49;;;;;;;2.53;1.42;;;8.40;99.90;;;;;;5049152;28;20236;-63
2023/11/08 01:37:18;;;;;;;2.00;1.77;;;8.40;99.90;;;;;;5053592;28;20202;-63
2023/11/08 01:39:45;;;;;;;3.75;1.73;;;8.40;99.90;;;;;;5049891;28;20207;-63
2023/11/08 01:42:12;;;;;;;1.30;1.20;;;8.40;99.90;;;;;;5053523;28;20213;-63
2023/11/08 01:44:39;;;;;;;2.33;1.42;;;8.40;99.90;;;;;;5046700;28;20230;-63
2023/11/08 01:47:07;;;;;;;3.88;1.48;;;8.50;99.90;;;;;;5053259;28;20199;-63
2023/11/08 01:49:34;;;;;;;3.70;2.05;;;8.40;99.90;;;;;;5053644;28;20227;-63
2023/11/08 01:52:02;;;;;;;3.05;1.75;;;8.40;99.90;;;;;;5053627;28;20212;-63
2023/11/08 01:54:30;;;;;;;4.70;1.58;;;8.40;99.90;;;;;;5053679;28;20280;-63
2023/11/08 01:56:58;;;;;;;2.85;1.40;;;8.40;99.90;;;;;;5053236;28;20202;-63
2023/11/08 01:59:25;;;;;;;4.25;1.77;;;8.40;99.90;;;;;;5053160;28;20295;-63
2023/11/08 02:01:57;;;;;;;3.63;3.13;;;8.40;99.90;;;;;;5052028;28;20205;-63
2023/11/08 02:04:24;;;;;;;3.08;2.20;;;8.40;99.90;;;;;;5053366;28;20229;-63
2023/11/08 02:06:50;;;;;;;5.05;1.70;;;8.40;99.90;;;;;;5053067;28;20210;-63
2023/11/08 02:09:18;;;;;;;3.10;1.52;;;8.40;99.90;;;;;;5053205;28;20226;-63
2023/11/08 02:11:47;;;;;;;5.45;2.75;;;8.40;99.90;;;;;;5053107;28;20672;-63
2023/11/08 02:14:13;;;;;;;1.90;1.70;;;8.40;99.90;;;;;;5052851;28;20673;-63
2023/11/08 02:16:41;;;;;;;3.47;2.15;;;8.40;99.90;;;;;;5052965;28;20801;-63
2023/11/08 02:19:08;;;;;;;4.03;1.90;;;8.40;99.90;;;;;;5053174;28;20202;-63
2023/11/08 02:21:35;;;;;;;4.30;2.88;;;8.40;99.90;;;;;;5053053;28;20214;-63
2023/11/08 02:24:16;;;;;;;3.58;2.28;;;8.40;99.90;;;;;;5052905;28;20213;-63
2023/11/08 02:26:43;;;;;;;5.20;4.85;;;8.40;99.90;;;;;;5052933;28;20217;-63
2023/11/08 02:29:10;;;;;;;4.97;2.67;;;8.30;99.90;;;;;;5053002;28;20324;-63
2023/11/08 02:31:37;;;;;;;2.40;2.20;;;8.30;99.90;;;;;;5053111;28;20293;-63
2023/11/08 02:34:06;;;;;;;3.15;2.60;;;8.30;99.90;;;;;;5052662;28;20222;-63
2023/11/08 02:36:33;;;;;;;6.28;2.90;;;8.30;99.90;;;;;;5052614;28;20202;-63
2023/11/08 02:39:00;;;;;;;3.25;2.95;;;8.30;99.90;;;;;;5052315;28;20209;-63
2023/11/08 02:41:29;;;;;;;8.13;2.08;;;8.30;99.90;;;;;;5052199;28;20213;-63
2023/11/08 02:43:55;;;;;;;3.10;2.50;;;8.40;99.90;;;;;;5052484;28;20632;-63
2023/11/08 02:46:22;;;;;;;4.30;1.90;;;8.40;99.90;;;;;;5051969;28;20233;-63
2023/11/08 02:48:49;;;;;;;3.20;2.00;;;8.40;99.90;;;;;;5052323;28;20786;-63
2023/11/08 02:51:16;;;;;;;2.75;1.75;;;8.40;99.90;;;;;;5052343;28;20216;-63
2023/11/08 02:53:43;;;;;;;5.78;2.28;;;8.40;99.90;;;;;;5052983;28;20228;-63
2023/11/08 02:56:10;;;;;;;1.77;1.48;;;8.40;99.90;;;;;;5051908;28;20232;-63
2023/11/08 02:58:38;;;;;;;2.77;1.73;;;8.40;99.90;;;;;;5052275;28;20234;-63
2023/11/08 03:01:05;;;;;;;4.68;2.30;;;8.40;99.90;;;;;;5051919;28;20445;-63
2023/11/08 03:03:32;;;;;;;3.38;2.22;;;8.50;99.90;;;;;;5052120;28;20202;-63
2023/11/08 03:05:59;;;;;;;1.75;1.65;;;8.50;99.90;;;;;;5051454;28;20233;-63
2023/11/08 03:08:25;;;;;;;2.53;2.13;;;8.50;99.90;;;;;;5052159;28;20206;-63
2023/11/08 03:10:52;;;;;;;1.90;1.80;;;8.50;99.90;;;;;;5051971;28;20853;-63
2023/11/08 03:13:19;;;;;;;3.38;2.83;;;8.50;99.90;;;;;;5051815;28;20210;-63
2023/11/08 03:15:47;;;;;;;2.30;2.10;;;8.50;99.90;;;;;;5051335;28;20245;-63
2023/11/08 03:18:18;;;;;;;2.70;2.17;;;8.50;99.90;;;;;;5051773;28;20206;-63
2023/11/08 03:20:45;;;;;;;2.63;2.10;;;8.50;99.90;;;;;;5051838;28;20695;-63
2023/11/08 03:23:11;;;;;;;3.78;2.60;;;8.50;99.90;;;;;;5051856;28;20202;-63
2023/11/08 03:25:39;;;;;;;5.55;2.80;;;8.50;99.90;;;;;;5051530;28;20230;-63
2023/11/08 03:28:05;;;;;;;2.50;2.30;;;8.60;99.90;;;;;;5051740;28;20202;-63
2023/11/08 03:30:32;;;;;;;3.88;1.80;;;8.60;99.90;;;;;;5051717;28;20228;-63
2023/11/08 03:33:00;;;;;;;3.35;2.40;;;8.50;99.90;;;;;;5051570;28;20207;-63
2023/11/08 03:35:27;;;;;;;4.72;1.80;;;8.60;99.90;;;;;;5051568;28;20225;-63
2023/11/08 03:37:55;;;;;;;4.72;2.10;;;8.60;99.90;;;;;;5051616;28;20694;-63
2023/11/08 03:40:22;;;;;;;11.13;2.10;;;8.60;99.90;;;;;;5051713;28;20206;-63
2023/11/08 03:42:48;;;;;;;3.95;1.75;;;8.60;99.90;;;;;;5051481;28;20931;-63
2023/11/08 03:45:15;;;;;;;4.93;2.08;;;8.60;99.90;;;;;;5051448;28;20236;-63
2023/11/08 03:47:42;;;;;;;1.70;1.60;;;8.60;99.90;;;;;;5051120;28;20699;-63
2023/11/08 03:50:11;;;;;;;3.10;1.70;;;8.60;99.90;;;;;;5051517;28;20906;-63
2023/11/08 03:52:39;;;;;;;3.40;2.15;;;8.50;99.90;;;;;;5046790;28;20260;-63
2023/11/08 03:55:07;;;;;;;2.58;1.80;;;8.50;99.90;;;;;;5050912;28;20226;-63
2023/11/08 03:57:35;;;;;;;2.65;1.90;;;8.50;99.90;;;;;;5051194;28;20877;-63
2023/11/08 04:00:02;;;;;;;3.28;2.25;;;8.50;99.90;;;;;;5051126;28;20296;-63
2023/11/08 04:02:29;;;;;;;4.32;2.30;;;8.50;99.90;;;;;;5051472;28;20213;-63
2023/11/08 04:04:57;;;;;;;2.38;2.10;;;8.50;99.90;;;;;;5051164;28;20313;-63
2023/11/08 04:07:25;;;;;;;2.67;2.35;;;8.50;99.90;;;;;;5050972;28;20219;-63
2023/11/08 04:09:52;;;;;;;1.95;1.85;;;8.50;99.90;;;;;;5051057;28;20246;-63
2023/11/08 04:12:18;;;;;;;3.65;2.35;;;8.40;99.90;;;;;;5049996;28;20870;-63
2023/11/08 04:14:46;;;;;;;2.35;1.90;;;8.50;99.90;;;;;;5051006;28;20244;-63
2023/11/08 04:17:15;;;;;;;2.15;1.60;;;8.50;99.90;;;;;;5050606;28;20210;-64
2023/11/08 04:19:46;;;;;;;4.43;2.30;;;8.50;99.90;;;;;;5050942;28;20614;-63
2023/11/08 04:22:14;;;;;;;2.38;2.13;;;8.50;99.90;;;;;;5050922;28;20214;-63
2023/11/08 04:24:43;;;;;;;2.53;2.38;;;8.50;99.90;;;;;;5052319;28;20265;-63
2023/11/08 04:27:10;;;;;;;2.00;1.73;;;8.50;99.90;;;;;;5055048;28;20213;-63
2023/11/08 04:29:37;;;;;;;2.45;2.25;;;8.50;99.90;;;;;;5055026;28;20226;-63
2023/11/08 04:32:05;;;;;;;1.95;1.80;;;8.50;99.90;;;;;;5055021;28;20314;-63
2023/11/08 04:34:32;;;;;;;3.22;2.40;;;8.50;99.90;;;;;;5054863;28;20309;-63
2023/11/08 04:36:58;;;;;;;2.35;2.15;;;8.50;99.90;;;;;;5054132;28;20364;-63
2023/11/08 04:39:26;;;;;;;3.75;2.72;;;8.50;99.90;;;;;;5054603;28;20198;-63
2023/11/08 04:41:55;;;;;;;3.08;2.30;;;8.50;99.90;;;;;;5053790;28;20262;-63
2023/11/08 04:44:22;;;;;;;6.75;2.85;;;8.50;99.90;;;;;;5051023;28;20309;-63
2023/11/08 04:46:49;;;;;;;4.82;2.38;;;8.50;99.90;;;;;;5053754;28;20614;-63
2023/11/08 04:49:16;;;;;;;1.77;1.60;;;8.50;99.90;;;;;;5054402;28;20212;-63
2023/11/08 04:51:43;;;;;;;4.82;1.85;;;8.50;99.90;;;;;;5053785;28;20212;-63
2023/11/08 04:54:10;;;;;;;2.22;2.03;;;8.50;99.90;;;;;;5053685;28;20206;-63
2023/11/08 04:56:36;;;;;;;4.30;2.30;;;8.50;99.90;;;;;;5070267;22;20272;-64
2023/11/08 04:59:06;;;;;;;2.58;2.20;;;8.50;99.90;;;;;;5034534;28;20203;-65
2023/11/08 05:01:33;;;;;;;2.42;1.65;;;8.50;99.90;;;;;;5038668;28;20214;-65
2023/11/08 05:04:00;;;;;;;2.92;2.35;;;8.50;99.90;;;;;;5035729;28;20649;-64
2023/11/08 05:06:27;;;;;;;6.18;2.17;;;8.50;99.90;;;;;;5033995;28;20235;-65
2023/11/08 05:08:54;;;;;;;4.13;2.45;;;8.50;99.90;;;;;;5034457;28;20242;-65
2023/11/08 05:11:21;;;;;;;3.47;3.15;;;8.50;99.90;;;;;;5034145;28;20253;-64
2023/11/08 05:13:48;;;;;;;5.15;2.17;;;8.40;99.90;;;;;;5034507;28;20207;-65
2023/11/08 05:16:21;;;;;;;2.35;2.00;;;8.40;99.90;;;;;;5033817;28;20655;-65
2023/11/08 05:18:48;;;;;;;2.60;2.40;;;8.50;99.90;;;;;;5034195;28;20234;-65
2023/11/08 05:21:14;;;;;;;3.22;2.22;;;8.50;99.90;;;;;;5033972;28;20209;-65
2023/11/08 05:23:41;;;;;;;2.67;2.47;;;8.50;99.90;;;;;;5034343;28;20211;-65
2023/11/08 05:26:08;;;;;;;3.22;2.33;;;8.50;99.90;;;;;;5033632;28;20757;-64
2023/11/08 05:28:35;;;;;;;2.50;2.30;;;8.50;99.90;;;;;;5033950;28;20697;-65
2023/11/08 05:31:02;;;;;;;2.90;2.50;;;8.50;99.90;;;;;;5033838;28;20227;-65
2023/11/08 05:33:30;;;;;;;3.00;2.40;;;8.40;99.90;;;;;;5033900;28;20446;-65
2023/11/08 05:35:59;;;;;;;3.33;2.70;;;8.40;99.90;;;;;;5033292;28;20550;-65
2023/11/08 05:38:25;;;;;;;2.42;2.22;;;8.40;99.90;;;;;;5033975;28;20198;-64
2023/11/08 05:40:53;;;;;;;7.88;2.20;;;8.40;99.90;;;;;;5033699;28;20203;-65
2023/11/08 05:43:21;;;;;;;2.50;2.30;;;8.40;99.90;;;;;;5033847;28;20238;-65
2023/11/08 05:45:48;;;;;;;3.85;2.47;;;8.40;99.90;;;;;;5033228;28;20649;-65
2023/11/08 05:48:15;;;;;;;5.88;2.40;;;8.30;99.90;;;;;;5033562;28;20318;-64
2023/11/08 05:50:43;;;;;;;2.30;1.80;;;8.30;99.90;;;;;;5033465;28;20242;-66
2023/11/08 05:53:13;;;;;;;3.45;2.03;;;8.30;99.90;;;;;;5033780;28;20732;-65
2023/11/08 05:55:40;;;;;;;3.25;2.17;;;8.30;99.90;;;;;;5033111;28;20215;-65
2023/11/08 05:58:07;;;;;;;3.22;2.15;;;8.30;99.90;;;;;;5033250;28;20622;-64
2023/11/08 06:00:34;;;;;;;5.50;2.78;;;8.30;99.90;;;;;;5033215;28;20198;-65
2023/11/08 06:03:01;;;;;;;2.28;2.08;;;8.30;99.90;;;;;;5033516;28;20215;-65
2023/11/08 06:05:29;;;;;;;3.80;2.30;;;8.30;99.90;;;;;;5033238;28;20229;-64
2023/11/08 06:07:58;;;;;;;5.03;3.42;;;8.30;99.90;;;;;;5033114;28;20524;-65
2023/11/08 06:10:25;;;;;;;3.42;3.13;;;8.30;99.90;;;;;;5033241;28;20223;-65
2023/11/08 06:12:52;;;;;;;3.95;2.95;;;8.30;99.90;;;;;;5033109;28;20207;-65
2023/11/08 06:15:19;;;;;;;2.90;2.60;;;8.30;99.90;;;;;;5032831;28;20203;-65
2023/11/08 06:17:47;;;;;;;6.45;5.00;;;8.30;99.90;;;;;;5033086;28;20231;-65
2023/11/08 06:20:14;;;;;;;3.08;2.72;;;8.30;99.90;;;;;;5033262;28;20204;-65
2023/11/08 06:22:41;;;;;;;5.63;4.03;;;8.30;99.90;;;;;;5033171;28;20302;-65
2023/11/08 06:25:10;;;;;;;5.90;3.75;;;8.30;99.90;;;;;;5032953;28;20257;-65
2023/11/08 06:27:37;;;;;;;4.60;3.20;;;8.30;99.90;;;;;;5032657;28;20772;-65
2023/11/08 06:30:04;;;;;;;8.60;5.03;;;8.30;99.90;;;;;;5032579;28;20804;-65
2023/11/08 06:32:31;;;;;;;12.48;5.40;;;8.30;99.90;;;;;;5032734;28;20533;-65
2023/11/08 06:35:00;;;;;;;8.20;3.78;;;8.30;99.90;;;;;;5032892;28;20213;-64
2023/11/08 06:37:27;;;;;;;6.50;3.40;;;8.30;99.90;;;;;;5032457;28;20223;-65
2023/11/08 06:39:55;;;;;;;8.63;3.92;;;8.20;99.90;;;;;;5032669;28;20477;-64
2023/11/08 06:42:23;;;;;;;5.65;3.75;;;8.20;99.90;;;;;;5032558;28;20213;-65
2023/11/08 06:44:50;;;;;;;8.65;4.68;;;8.20;99.90;;;;;;5032784;28;20203;-64
2023/11/08 06:47:18;;;;;;;9.20;6.78;;;8.20;99.90;;;;;;5031771;28;20237;-65
2023/11/08 06:49:45;;;;;;;8.63;4.78;;;8.30;99.90;;;;;;5032321;28;20301;-65
2023/11/08 06:52:11;;;;;;;3.85;3.38;;;8.20;99.90;;;;;;5032370;28;20729;-64
2023/11/08 06:54:41;;;;;;;5.22;2.50;;;8.30;99.90;;;;;;5032054;28;20217;-65
2023/11/08 06:57:09;;;;;;;4.13;3.03;;;8.30;99.90;;;;;;5031777;28;21102;-65
2023/11/08 06:59:37;;;;;;;4.45;2.88;;;8.30;99.90;;;;;;5032440;28;20207;-65
2023/11/08 07:02:04;;;;;;;3.50;3.15;;;8.30;99.90;;;;;;5032451;28;20290;-65
2023/11/08 07:04:31;;;;;;;3.83;2.88;;;8.40;99.90;;;;;;5032227;28;20215;-65
2023/11/08 07:06:58;;;;;;;3.85;3.53;;;8.40;99.90;;;;;;5031817;28;20781;-65
2023/11/08 07:09:25;;;;;;;4.57;3.03;;;8.40;99.90;;;;;;5032158;28;20211;-65
2023/11/08 07:11:52;;;;;;;3.40;3.17;;;8.40;99.90;;;;;;5032049;28;20331;-65
2023/11/08 07:14:19;;;;;;;3.25;2.10;;;8.50;99.90;;;;;;5032244;28;20207;-66
2023/11/08 07:16:47;;;;;;;4.70;2.78;;;8.50;99.90;;;;;;5031659;28;20748;-64
2023/11/08 07:19:14;;;;;;;6.20;2.78;;;8.50;99.90;;;;;;5031760;28;20213;-65
2023/11/08 07:21:41;;;;;;;5.00;3.88;;;8.60;99.90;;;;;;5031080;28;20203;-65
2023/11/08 07:24:08;;;;;;;3.25;2.50;;;8.60;99.90;;;;;;5030561;28;20203;-65
2023/11/08 07:26:35;;;;;;;2.20;2.00;;;8.60;99.90;;;;;;5030211;28;20601;-65
2023/11/08 07:29:04;;;;;;;3.05;2.75;;;8.70;99.90;;;;;;5031114;28;20297;-64
2023/11/08 07:31:31;;;;;;;4.50;2.80;;;8.70;99.90;;;;;;5029248;28;20231;-65
2023/11/08 07:34:00;;;;;;;3.60;3.22;;;8.70;99.90;;;;;;5027463;28;20450;-65
2023/11/08 07:36:29;;;;;;;4.32;3.33;;;8.70;99.90;;;;;;5029023;28;20223;-64
2023/11/08 07:38:56;;;;;;;4.38;2.85;;;8.80;99.90;;;;;;5024089;28;20298;-65
2023/11/08 07:41:23;;;;;;;3.17;2.90;;;8.70;99.90;;;;;;5031386;28;20290;-65
2023/11/08 07:43:50;;;;;;;4.53;2.83;;;8.80;99.90;;;;;;5031806;28;20571;-65
2023/11/08 07:46:17;;;;;;;3.25;2.95;;;8.80;99.90;;;;;;5031104;28;20466;-65
2023/11/08 07:48:44;;;;;;;3.67;2.35;;;8.90;99.90;;;;;;5031156;28;20218;-65
2023/11/08 07:51:12;;;;;;;3.92;3.67;;;8.90;99.90;;;;;;5031207;28;20222;-65
2023/11/08 07:53:39;;;;;;;3.28;2.50;;;9.00;99.90;;;;;;5031426;28;20230;-65
2023/11/08 07:56:08;;;;;;;3.92;2.75;;;9.00;99.90;;;;;;5031140;28;20221;-65
2023/11/08 07:58:34;;;;;;;4.53;2.57;;;9.00;99.90;;;;;;5031314;28;20211;-65
2023/11/08 08:01:01;;;;;;;2.70;2.50;;;9.00;99.90;;;;;;5031486;28;20536;-65
2023/11/08 08:03:28;;;;;;;5.05;3.08;;;9.00;99.90;;;;;;5031394;28;20294;-65
2023/11/08 08:05:56;;;;;;;2.13;2.03;;;9.10;99.90;;;;;;5030933;28;20211;-65
2023/11/08 08:08:25;;;;;;;3.40;3.10;;;9.10;99.90;;;;;;5031125;28;20457;-65
2023/11/08 08:10:51;;;;;;;3.00;2.80;;;9.10;99.90;;;;;;5031379;28;20967;-65
2023/11/08 08:13:20;;;;;;;3.25;2.70;;;9.20;99.90;;;;;;5031175;28;20537;-65
2023/11/08 08:15:48;;;;;;;3.85;2.42;;;9.20;99.90;;;;;;5030638;28;20213;-64
2023/11/08 08:18:15;;;;;;;7.43;3.88;;;9.20;99.90;;;;;;5031037;28;20210;-64
2023/11/08 08:20:41;;;;;;;3.40;3.10;;;9.20;99.90;;;;;;5031326;28;20482;-65
2023/11/08 08:23:09;;;;;;;3.07;2.37;;;9.20;99.90;;;;;;5031251;28;20647;-65
2023/11/08 08:25:39;;;;;;;3.20;2.30;;;9.20;99.90;;;;;;5030380;28;20453;-65
2023/11/08 08:28:06;;;;;;;3.17;2.88;;;9.20;99.90;;;;;;5028075;28;20493;-65
2023/11/08 08:30:34;;;;;;;4.53;3.07;;;9.20;99.90;;;;;;5027474;28;20259;-65
2023/11/08 08:33:01;;;;;;;3.57;2.73;;;9.20;99.90;;;;;;5028426;28;20450;-65
2023/11/08 08:35:29;;;;;;;5.93;2.70;;;9.20;99.90;;;;;;5027363;28;20835;-65
2023/11/08 08:37:55;;;;;;;3.87;3.17;;;9.20;99.90;;;;;;5029685;28;20701;-65
2023/11/08 08:40:22;;;;;;;4.03;2.80;;;9.20;99.90;;;;;;5032434;28;20454;-65
2023/11/08 08:42:51;;;;;;;5.90;2.58;;;9.20;99.90;;;;;;5032774;28;20207;-65
2023/11/08 08:45:18;;;;;;;4.63;3.13;;;9.20;99.90;;;;;;5030033;28;20852;-65
2023/11/08 08:47:45;;;;;;;4.65;3.00;;;9.20;99.90;;;;;;5025908;28;20492;-65
2023/11/08 08:50:13;;;;;;;2.53;2.20;;;9.30;99.90;;;;;;5028601;28;20242;-65
2023/11/08 08:52:40;;;;;;;2.90;2.70;;;9.40;99.90;;;;;;5027872;28;20667;-65
2023/11/08 08:55:08;;;;;;;3.53;2.60;;;9.50;99.90;;;;;;5029207;28;20932;-64
2023/11/08 08:57:35;;;;;;;2.90;2.40;;;9.50;99.90;;;;;;5025981;28;20501;-64
2023/11/08 09:00:07;;;;;;;5.50;2.03;;;9.60;99.90;;;;;;5028817;28;21078;-64
2023/11/08 09:02:34;;;;;;;6.13;2.97;;;9.70;99.90;;;;;;5026785;28;20480;-66
2023/11/08 09:05:01;;;;;;;2.83;2.40;;;9.70;99.90;;;;;;5026143;28;20541;-65
2023/11/08 09:07:30;;;;;;;2.57;2.37;;;9.80;99.90;;;;;;5027743;28;20488;-65
2023/11/08 09:09:57;;;;;;;2.43;2.23;;;9.90;99.90;;;;;;5028901;28;20828;-65
2023/11/08 09:12:24;;;;;;;2.67;2.47;;;9.90;99.90;;;;;;5031753;28;21023;-65
2023/11/08 09:14:52;;;;;;;3.03;2.07;;;10.10;99.90;;;;;;5026997;28;20461;-65
2023/11/08 09:17:21;;;;;;;2.10;2.00;;;10.10;99.90;;;;;;5030621;28;20481;-65
2023/11/08 09:19:48;;;;;;;1.87;1.77;;;10.10;99.90;;;;;;5028641;28;20830;-64
2023/11/08 09:22:15;;;;;;;3.00;1.53;;;10.10;99.90;;;;;;5030135;28;20576;-64
2023/11/08 09:24:42;;;;;;;3.40;1.30;;;10.20;99.90;;;;;;5028709;28;20813;-64
2023/11/08 09:27:09;;;;;;;8.10;2.60;;;10.20;99.90;;;;;;5030967;28;20984;-64
2023/11/08 09:29:36;;;;;;;4.90;2.23;;;10.20;99.90;;;;;;5035649;28;20453;-65
2023/11/08 09:32:04;;;;;;;2.63;1.70;;;10.10;99.90;;;;;;5029617;28;20493;-64
2023/11/08 09:34:32;;;;;;;1.80;1.30;;;10.10;99.90;;;;;;5020029;28;21008;-65
2023/11/08 09:37:00;;;;;;;5.03;2.90;;;10.00;99.90;;;;;;5029852;28;20541;-66
2023/11/08 09:39:28;;;;;;;1.73;1.63;;;10.00;99.90;;;;;;5032004;28;20462;-66
2023/11/08 09:41:56;;;;;;;4.20;1.70;;;10.00;99.90;;;;;;5031420;28;20983;-66
2023/11/08 09:44:24;;;;;;;2.27;1.70;;;10.00;99.90;;;;;;5033967;28;20454;-66
2023/11/08 09:46:53;;;;;;;3.60;1.87;;;10.10;99.90;;;;;;5031206;28;20465;-66
2023/11/08 09:49:22;;;;;;;3.03;1.93;;;10.10;99.90;;;;;;5024696;28;20449;-66
2023/11/08 09:51:51;;;;;;;2.00;1.23;;;10.20;99.90;;;;;;5031553;28;20568;-66
2023/11/08 09:54:18;;;;;;;1.33;1.23;;;10.20;99.90;;;;;;5024555;28;20441;-66
2023/11/08 09:56:45;;;;;;;1.77;1.67;;;10.30;99.90;;;;;;5032363;28;20478;-66
2023/11/08 09:59:14;;;;;;;4.37;1.63;;;10.40;99.90;;;;;;5032753;28;20477;-66
2023/11/08 10:01:44;;;;;;;3.37;2.10;;;10.40;99.90;;;;;;5031833;28;20442;-65
2023/11/08 10:04:12;;;;;;;1.20;1.10;;;10.50;99.90;;;;;;5032004;28;20449;-65
2023/11/08 10:06:39;;;;;;;4.20;1.40;;;10.60;99.90;;;;;;5031479;28;20472;-66
2023/11/08 10:09:08;;;;;;;5.50;1.57;;;10.80;99.90;;;;;;5032190;28;20479;-65
2023/11/08 10:11:36;;;;;;;2.20;1.40;;;11.00;99.90;;;;;;5032279;28;20521;-65
2023/11/08 10:14:03;;;;;;;3.23;2.23;;;11.00;99.90;;;;;;5032317;28;20929;-65
2023/11/08 10:16:44;;;;;;;1.13;1.13;;;11.00;99.90;;;;;;5032002;28;20497;-65
2023/11/08 10:19:11;;;;;;;3.20;1.60;;;11.10;99.90;;;;;;5031621;28;20441;-65
2023/11/08 10:21:38;;;;;;;1.97;1.40;;;11.20;99.90;;;;;;5031069;28;20446;-65
2023/11/08 10:24:15;;;;;;;3.60;2.07;;;11.20;99.90;;;;;;5031402;28;20508;-64
2023/11/08 10:26:42;;;;;;;1.20;1.20;;;11.20;99.90;;;;;;5031731;28;20467;-65
2023/11/08 10:29:11;;;;;;;2.03;1.37;;;11.30;99.90;;;;;;5031817;28;20454;-65
2023/11/08 10:31:39;;;;;;;3.93;1.80;;;11.40;99.90;;;;;;5031378;28;20485;-65
2023/11/08 10:34:08;;;;;;;1.40;1.30;;;11.50;99.90;;;;;;5029895;28;20453;-65
2023/11/08 10:36:36;;;;;;;2.37;1.47;;;11.60;99.90;;;;;;5031849;28;20485;-65
2023/11/08 10:39:05;;;;;;;3.77;1.53;;;11.80;99.90;;;;;;5031881;28;20454;-65
2023/11/08 10:41:36;;;;;;;3.00;1.80;;;11.90;99.90;;;;;;5030812;28;20454;-65
2023/11/08 10:44:08;;;;;;;4.17;1.90;;;12.00;99.90;;;;;;5031278;28;20921;-65
2023/11/08 10:46:35;;;;;;;2.07;1.60;;;12.30;99.90;;;;;;5031418;28;20476;-65
2023/11/08 10:49:04;;;;;;;2.20;1.20;;;12.40;99.90;;;;;;5031439;28;20450;-65
2023/11/08 10:51:32;;;;;;;2.73;1.30;;;12.60;99.90;;;;;;5017660;28;20488;-65
2023/11/08 10:53:59;;;;;;;4.83;1.87;;;12.70;99.90;;;;;;5031000;28;20544;-65
2023/11/08 10:56:28;;;;;;;1.30;1.20;;;12.80;99.90;;;;;;5029981;28;20915;-65
2023/11/08 10:58:59;;;;;;;3.27;1.40;;;12.90;99.90;;;;;;5031607;28;20460;-65
2023/11/08 11:01:30;;;;;;;6.73;1.90;;;13.00;99.90;;;;;;5031303;28;20441;-65
2023/11/08 11:04:02;;;;;;;2.70;1.37;;;13.10;99.90;;;;;;5031457;28;20486;-65
2023/11/08 11:06:30;;;;;;;3.63;1.27;;;13.10;99.90;;;;;;5030344;28;20818;-65
2023/11/08 11:08:58;;;;;;;3.03;1.30;;;13.20;99.90;;;;;;5030596;28;20442;-65
2023/11/08 11:11:26;;;;;;;1.07;1.00;;;13.30;99.90;;;;;;5030963;28;20488;-65
2023/11/08 11:14:01;;;;;;;2.17;1.97;;;13.30;99.90;;;;;;5031152;28;20520;-65
2023/11/08 11:16:34;;;;;;;0.83;0.83;;;13.30;99.90;;;;;;5029197;28;20461;-65
2023/11/08 11:19:08;;;;;;;2.17;1.23;;;13.20;99.90;;;;;;5030823;28;20452;-65
2023/11/08 11:21:41;;;;;;;3.83;1.90;;;13.00;99.90;;;;;;5030661;28;20540;-65
2023/11/08 11:24:39;;;;;;;1.40;1.13;;;13.00;99.90;;;;;;5031031;28;20473;-65
2023/11/08 11:27:06;;;;;;;4.20;1.60;;;13.00;99.90;;;;;;5029823;28;20561;-65
2023/11/08 11:29:35;;;;;;;1.23;1.10;;;12.90;99.90;;;;;;5030596;28;20537;-65
2023/11/08 11:32:04;;;;;;;4.50;1.00;;;12.70;99.90;;;;;;5030622;28;20608;-65
2023/11/08 11:34:46;;;;;;;1.60;1.10;;;12.70;99.90;;;;;;5029760;28;20508;-65
2023/11/08 11:37:16;;;;;;;1.93;1.13;;;12.50;99.90;;;;;;5030338;28;20461;-65
2023/11/08 11:39:49;;;;;;;1.20;1.10;;;12.50;99.90;;;;;;5030591;28;20448;-65
2023/11/08 11:42:17;;;;;;;4.90;1.60;;;12.50;99.90;;;;;;5026486;28;20464;-65
2023/11/08 11:44:49;;;;;;;2.40;1.43;;;12.40;99.90;;;;;;5030383;28;20456;-65
2023/11/08 11:47:17;;;;;;;1.87;0.93;;;12.30;99.90;;;;;;5024970;28;21015;-65
2023/11/08 11:49:48;;;;;;;2.30;2.00;;;12.40;99.90;;;;;;5030523;28;20538;-65
2023/11/08 11:52:16;;;;;;;2.60;1.50;;;12.40;99.90;;;;;;5029774;28;20477;-65
2023/11/08 11:54:50;;;;;;;2.23;1.30;;;12.40;99.90;;;;;;5030045;28;20815;-65
2023/11/08 11:57:20;;;;;;;2.03;1.60;;;12.70;99.90;;;;;;5030040;28;20552;-66
2023/11/08 11:59:49;;;;;;;1.50;1.23;;;13.10;99.90;;;;;;5030166;28;20538;-66
2023/11/08 12:02:17;;;;;;;3.60;1.13;;;13.50;99.90;;;;;;5030227;28;20477;-66
2023/11/08 12:04:45;;;;;;;2.40;2.30;;;13.80;99.90;;;;;;5030325;28;20442;-66
2023/11/08 12:07:14;;;;;;;1.33;1.10;;;14.10;99.90;;;;;;5029182;28;20461;-65
2023/11/08 12:09:42;;;;;;;2.60;1.27;;;14.30;99.90;;;;;;5030224;28;20536;-65
2023/11/08 12:12:10;;;;;;;1.67;1.10;;;14.50;99.90;;;;;;5025780;28;20933;-66
2023/11/08 12:14:41;;;;;;;1.70;1.13;;;14.70;99.90;;;;;;5029572;28;21134;-66
2023/11/08 12:17:10;;;;;;;1.43;0.83;;;14.90;99.90;;;;;;5028537;28;20549;-66
2023/11/08 12:19:37;;;;;;;3.97;2.03;;;15.30;99.90;;;;;;5030110;28;20450;-66
2023/11/08 12:22:05;;;;;;;2.43;1.70;;;15.80;99.90;;;;;;5030126;28;20485;-66
2023/11/08 12:24:32;;;;;;;1.10;1.00;;;15.90;98.40;;;;;;5030209;28;20452;-65
2023/11/08 12:26:59;;;;;;;6.47;1.70;;;16.00;97.70;;;;;;5029301;28;20470;-65
2023/11/08 12:29:26;;;;;;;2.33;0.90;;;15.90;98.10;;;;;;5023714;28;20460;-65
2023/11/08 12:31:53;;;;;;;4.83;1.37;;;15.80;97.70;;;;;;5029353;28;20488;-65
2023/11/08 12:34:22;;;;;;;1.10;0.80;;;15.80;97.70;;;;;;5021353;28;20553;-66
2023/11/08 12:36:49;;;;;;;2.20;1.90;;;15.70;98.00;;;;;;5029412;28;20470;-65
2023/11/08 12:39:20;;;;;;;2.50;2.30;;;15.40;97.30;;;;;;5028738;28;20985;-65
2023/11/08 12:41:49;;;;;;;2.00;0.97;;;15.10;97.30;;;;;;5029964;28;20454;-65
2023/11/08 12:44:19;;;;;;;6.53;1.33;;;14.90;97.70;;;;;;5029128;28;20501;-65
2023/11/08 12:46:53;;;;;;;1.03;0.87;;;14.60;99.00;;;;;;5032808;28;20471;-65
2023/11/08 12:49:24;;;;;;;2.80;1.80;;;14.20;98.10;;;;;;5033159;28;20453;-65
2023/11/08 12:51:51;;;;;;;1.77;1.33;;;14.00;99.40;;;;;;5033472;28;20560;-65
2023/11/08 12:54:19;;;;;;;1.10;1.00;;;13.70;99.40;;;;;;5032827;28;20548;-65
2023/11/08 12:56:46;;;;;;;0.90;0.90;;;13.50;99.90;;;;;;5033487;28;20918;-65